sensor_id;sensor_type;location;lat;lon;timestamp;P1;durP1;ratioP1;P2;durP2;ratioP2
53044;SDS011;38930;52.766;6.884;2022-09-30T00:00:57;4.28;;;3.50;;
53044;SDS011;38930;52.766;6.884;2022-09-30T00:03:23;5.05;;;3.58;;
53044;SDS011;38930;52.766;6.884;2022-09-30T00:06:02;4.07;;;3.38;;
53044;SDS011;38930;52.766;6.884;2022-09-30T00:08:29;4.40;;;3.30;;
53044;SDS011;38930;52.766;6.884;2022-09-30T00:10:59;4.95;;;3.70;;
53044;SDS011;38930;52.766;6.884;2022-09-30T00:13:25;4.22;;;3.47;;
53044;SDS011;38930;52.766;6.884;2022-09-30T00:15:51;3.97;;;3.42;;
53044;SDS011;38930;52.766;6.884;2022-09-30T00:18:17;3.72;;;3.33;;
53044;SDS011;38930;52.766;6.884;2022-09-30T00:20:42;4.97;;;3.67;;
53044;SDS011;38930;52.766;6.884;2022-09-30T00:23:08;6.05;;;3.92;;
53044;SDS011;38930;52.766;6.884;2022-09-30T00:25:33;4.82;;;3.80;;
53044;SDS011;38930;52.766;6.884;2022-09-30T00:27:59;4.75;;;3.72;;
53044;SDS011;38930;52.766;6.884;2022-09-30T00:30:25;7.05;;;4.32;;
53044;SDS011;38930;52.766;6.884;2022-09-30T00:32:50;4.68;;;3.75;;
53044;SDS011;38930;52.766;6.884;2022-09-30T00:35:16;6.00;;;4.07;;
53044;SDS011;38930;52.766;6.884;2022-09-30T00:37:41;4.88;;;4.30;;
53044;SDS011;38930;52.766;6.884;2022-09-30T00:40:07;5.50;;;4.47;;
53044;SDS011;38930;52.766;6.884;2022-09-30T00:42:38;4.38;;;3.90;;
53044;SDS011;38930;52.766;6.884;2022-09-30T00:45:05;6.68;;;4.63;;
53044;SDS011;38930;52.766;6.884;2022-09-30T00:50:28;6.63;;;4.97;;
53044;SDS011;38930;52.766;6.884;2022-09-30T00:55:51;5.05;;;4.55;;
53044;SDS011;38930;52.766;6.884;2022-09-30T00:58:23;5.35;;;4.45;;
53044;SDS011;38930;52.766;6.884;2022-09-30T01:00:55;5.32;;;4.80;;
53044;SDS011;38930;52.766;6.884;2022-09-30T01:03:23;6.47;;;4.82;;
53044;SDS011;38930;52.766;6.884;2022-09-30T01:05:50;5.60;;;4.88;;
53044;SDS011;38930;52.766;6.884;2022-09-30T01:08:17;6.32;;;4.55;;
53044;SDS011;38930;52.766;6.884;2022-09-30T01:10:44;5.75;;;5.13;;
53044;SDS011;38930;52.766;6.884;2022-09-30T01:13:10;5.50;;;4.75;;
53044;SDS011;38930;52.766;6.884;2022-09-30T01:15:43;5.68;;;4.95;;
53044;SDS011;38930;52.766;6.884;2022-09-30T01:18:23;6.30;;;4.88;;
53044;SDS011;38930;52.766;6.884;2022-09-30T01:21:10;6.93;;;5.35;;
53044;SDS011;38930;52.766;6.884;2022-09-30T01:27:04;8.00;;;5.32;;
53044;SDS011;38930;52.766;6.884;2022-09-30T01:29:51;5.53;;;5.03;;
53044;SDS011;38930;52.766;6.884;2022-09-30T01:32:41;7.13;;;6.15;;
53044;SDS011;38930;52.766;6.884;2022-09-30T01:37:55;6.18;;;4.97;;
53044;SDS011;38930;52.766;6.884;2022-09-30T01:46:55;6.38;;;5.55;;
53044;SDS011;38930;52.766;6.884;2022-09-30T01:49:26;7.07;;;5.95;;
53044;SDS011;38930;52.766;6.884;2022-09-30T01:52:00;7.13;;;5.30;;
53044;SDS011;38930;52.766;6.884;2022-09-30T01:57:56;6.70;;;5.95;;
53044;SDS011;38930;52.766;6.884;2022-09-30T02:00:26;8.50;;;6.00;;
53044;SDS011;38930;52.766;6.884;2022-09-30T02:02:56;8.37;;;6.00;;
53044;SDS011;38930;52.766;6.884;2022-09-30T02:05:27;10.00;;;6.43;;
53044;SDS011;38930;52.766;6.884;2022-09-30T02:08:03;7.43;;;5.80;;
53044;SDS011;38930;52.766;6.884;2022-09-30T02:10:34;8.43;;;5.88;;
53044;SDS011;38930;52.766;6.884;2022-09-30T02:13:13;8.85;;;7.00;;
53044;SDS011;38930;52.766;6.884;2022-09-30T02:15:47;7.65;;;6.35;;
53044;SDS011;38930;52.766;6.884;2022-09-30T02:18:24;7.47;;;5.88;;
53044;SDS011;38930;52.766;6.884;2022-09-30T02:21:03;7.22;;;5.82;;
53044;SDS011;38930;52.766;6.884;2022-09-30T02:23:32;8.95;;;7.22;;
53044;SDS011;38930;52.766;6.884;2022-09-30T02:26:06;9.93;;;5.75;;
53044;SDS011;38930;52.766;6.884;2022-09-30T02:28:43;6.95;;;5.05;;
53044;SDS011;38930;52.766;6.884;2022-09-30T02:31:17;7.32;;;5.22;;
53044;SDS011;38930;52.766;6.884;2022-09-30T02:33:58;5.85;;;5.18;;
53044;SDS011;38930;52.766;6.884;2022-09-30T02:39:09;7.55;;;6.15;;
53044;SDS011;38930;52.766;6.884;2022-09-30T02:42:01;8.82;;;5.63;;
53044;SDS011;38930;52.766;6.884;2022-09-30T02:44:36;6.35;;;5.70;;
53044;SDS011;38930;52.766;6.884;2022-09-30T02:47:10;8.35;;;5.55;;
53044;SDS011;38930;52.766;6.884;2022-09-30T02:49:49;6.63;;;5.13;;
53044;SDS011;38930;52.766;6.884;2022-09-30T02:52:21;6.07;;;5.47;;
53044;SDS011;38930;52.766;6.884;2022-09-30T03:00:07;6.78;;;5.32;;
53044;SDS011;38930;52.766;6.884;2022-09-30T03:02:34;6.27;;;5.40;;
53044;SDS011;38930;52.766;6.884;2022-09-30T03:05:00;11.75;;;6.03;;
53044;SDS011;38930;52.766;6.884;2022-09-30T03:07:25;5.63;;;4.47;;
53044;SDS011;38930;52.766;6.884;2022-09-30T03:09:55;5.63;;;4.65;;
53044;SDS011;38930;52.766;6.884;2022-09-30T03:12:29;7.72;;;4.75;;
53044;SDS011;38930;52.766;6.884;2022-09-30T03:18:28;5.85;;;5.20;;
53044;SDS011;38930;52.766;6.884;2022-09-30T03:21:23;5.97;;;5.07;;
53044;SDS011;38930;52.766;6.884;2022-09-30T03:24:56;6.57;;;5.68;;
53044;SDS011;38930;52.766;6.884;2022-09-30T03:29:40;6.15;;;5.18;;
53044;SDS011;38930;52.766;6.884;2022-09-30T03:37:31;6.07;;;5.15;;
53044;SDS011;38930;52.766;6.884;2022-09-30T03:43:05;7.55;;;5.35;;
53044;SDS011;38930;52.766;6.884;2022-09-30T03:46:02;7.38;;;6.18;;
53044;SDS011;38930;52.766;6.884;2022-09-30T03:48:32;6.20;;;5.55;;
53044;SDS011;38930;52.766;6.884;2022-09-30T03:51:00;6.60;;;5.82;;
53044;SDS011;38930;52.766;6.884;2022-09-30T03:53:27;6.72;;;5.65;;
53044;SDS011;38930;52.766;6.884;2022-09-30T03:55:53;6.30;;;5.15;;
53044;SDS011;38930;52.766;6.884;2022-09-30T03:58:19;9.35;;;6.28;;
53044;SDS011;38930;52.766;6.884;2022-09-30T04:00:50;6.97;;;5.93;;
53044;SDS011;38930;52.766;6.884;2022-09-30T04:03:18;7.88;;;5.88;;
53044;SDS011;38930;52.766;6.884;2022-09-30T04:05:45;6.60;;;5.85;;
53044;SDS011;38930;52.766;6.884;2022-09-30T04:08:12;8.07;;;5.88;;
53044;SDS011;38930;52.766;6.884;2022-09-30T04:10:38;7.25;;;5.55;;
53044;SDS011;38930;52.766;6.884;2022-09-30T04:13:05;7.38;;;5.80;;
53044;SDS011;38930;52.766;6.884;2022-09-30T04:15:31;7.13;;;6.23;;
53044;SDS011;38930;52.766;6.884;2022-09-30T04:17:58;9.10;;;7.17;;
53044;SDS011;38930;52.766;6.884;2022-09-30T04:20:23;9.10;;;6.10;;
53044;SDS011;38930;52.766;6.884;2022-09-30T04:22:50;10.50;;;6.38;;
53044;SDS011;38930;52.766;6.884;2022-09-30T04:25:15;9.30;;;7.10;;
53044;SDS011;38930;52.766;6.884;2022-09-30T04:27:41;6.90;;;5.82;;
53044;SDS011;38930;52.766;6.884;2022-09-30T04:30:06;7.03;;;5.72;;
53044;SDS011;38930;52.766;6.884;2022-09-30T04:32:32;7.82;;;6.18;;
53044;SDS011;38930;52.766;6.884;2022-09-30T04:34:58;7.45;;;5.85;;
53044;SDS011;38930;52.766;6.884;2022-09-30T04:37:23;9.25;;;6.35;;
53044;SDS011;38930;52.766;6.884;2022-09-30T04:39:49;7.05;;;5.72;;
53044;SDS011;38930;52.766;6.884;2022-09-30T04:42:14;7.20;;;6.10;;
53044;SDS011;38930;52.766;6.884;2022-09-30T04:44:42;7.43;;;6.25;;
53044;SDS011;38930;52.766;6.884;2022-09-30T04:47:08;6.63;;;5.75;;
53044;SDS011;38930;52.766;6.884;2022-09-30T04:49:33;8.10;;;6.65;;
53044;SDS011;38930;52.766;6.884;2022-09-30T04:51:59;6.78;;;5.85;;
53044;SDS011;38930;52.766;6.884;2022-09-30T04:54:25;7.97;;;6.22;;
53044;SDS011;38930;52.766;6.884;2022-09-30T04:56:50;11.75;;;6.47;;
53044;SDS011;38930;52.766;6.884;2022-09-30T04:59:16;9.13;;;7.25;;
53044;SDS011;38930;52.766;6.884;2022-09-30T05:01:41;9.35;;;6.50;;
53044;SDS011;38930;52.766;6.884;2022-09-30T05:04:08;7.65;;;5.88;;
53044;SDS011;38930;52.766;6.884;2022-09-30T05:06:36;12.32;;;6.65;;
53044;SDS011;38930;52.766;6.884;2022-09-30T05:09:04;11.02;;;7.43;;
53044;SDS011;38930;52.766;6.884;2022-09-30T05:11:30;22.70;;;7.25;;
53044;SDS011;38930;52.766;6.884;2022-09-30T05:13:56;8.00;;;6.47;;
53044;SDS011;38930;52.766;6.884;2022-09-30T05:16:22;7.50;;;6.65;;
53044;SDS011;38930;52.766;6.884;2022-09-30T05:18:48;8.68;;;7.38;;
53044;SDS011;38930;52.766;6.884;2022-09-30T05:21:14;7.70;;;6.03;;
53044;SDS011;38930;52.766;6.884;2022-09-30T05:23:41;7.82;;;6.03;;
53044;SDS011;38930;52.766;6.884;2022-09-30T05:26:07;37.13;;;9.57;;
53044;SDS011;38930;52.766;6.884;2022-09-30T05:28:33;10.50;;;7.30;;
53044;SDS011;38930;52.766;6.884;2022-09-30T05:31:00;8.90;;;6.82;;
53044;SDS011;38930;52.766;6.884;2022-09-30T05:33:27;38.20;;;9.57;;
53044;SDS011;38930;52.766;6.884;2022-09-30T05:35:53;7.72;;;6.32;;
53044;SDS011;38930;52.766;6.884;2022-09-30T05:38:22;7.32;;;6.20;;
53044;SDS011;38930;52.766;6.884;2022-09-30T05:40:48;8.27;;;6.03;;
53044;SDS011;38930;52.766;6.884;2022-09-30T05:43:13;8.00;;;7.00;;
53044;SDS011;38930;52.766;6.884;2022-09-30T05:45:39;7.15;;;5.90;;
53044;SDS011;38930;52.766;6.884;2022-09-30T05:48:05;8.55;;;6.80;;
53044;SDS011;38930;52.766;6.884;2022-09-30T05:50:31;7.75;;;6.55;;
53044;SDS011;38930;52.766;6.884;2022-09-30T05:52:57;8.75;;;6.45;;
53044;SDS011;38930;52.766;6.884;2022-09-30T05:55:24;8.75;;;6.40;;
53044;SDS011;38930;52.766;6.884;2022-09-30T05:57:50;10.07;;;7.65;;
53044;SDS011;38930;52.766;6.884;2022-09-30T06:00:16;11.02;;;6.57;;
53044;SDS011;38930;52.766;6.884;2022-09-30T06:02:43;10.70;;;7.57;;
53044;SDS011;38930;52.766;6.884;2022-09-30T06:05:09;9.50;;;6.80;;
53044;SDS011;38930;52.766;6.884;2022-09-30T06:07:35;8.02;;;6.43;;
53044;SDS011;38930;52.766;6.884;2022-09-30T06:10:03;8.27;;;6.65;;
53044;SDS011;38930;52.766;6.884;2022-09-30T06:12:32;9.07;;;7.30;;
53044;SDS011;38930;52.766;6.884;2022-09-30T06:15:01;9.98;;;7.50;;
53044;SDS011;38930;52.766;6.884;2022-09-30T06:17:26;8.75;;;7.20;;
53044;SDS011;38930;52.766;6.884;2022-09-30T06:19:52;8.85;;;7.07;;
53044;SDS011;38930;52.766;6.884;2022-09-30T06:22:20;8.32;;;6.78;;
53044;SDS011;38930;52.766;6.884;2022-09-30T06:24:46;10.02;;;7.80;;
53044;SDS011;38930;52.766;6.884;2022-09-30T06:27:12;10.40;;;8.60;;
53044;SDS011;38930;52.766;6.884;2022-09-30T06:29:38;11.55;;;9.25;;
53044;SDS011;38930;52.766;6.884;2022-09-30T06:32:04;9.85;;;7.35;;
53044;SDS011;38930;52.766;6.884;2022-09-30T06:36:56;11.45;;;8.38;;
53044;SDS011;38930;52.766;6.884;2022-09-30T06:39:21;11.90;;;8.55;;
53044;SDS011;38930;52.766;6.884;2022-09-30T06:41:47;12.77;;;8.65;;
53044;SDS011;38930;52.766;6.884;2022-09-30T06:44:13;13.73;;;8.20;;
53044;SDS011;38930;52.766;6.884;2022-09-30T06:46:38;13.48;;;10.02;;
53044;SDS011;38930;52.766;6.884;2022-09-30T06:49:04;12.98;;;8.95;;
53044;SDS011;38930;52.766;6.884;2022-09-30T06:53:57;16.52;;;12.05;;
53044;SDS011;38930;52.766;6.884;2022-09-30T06:56:23;13.65;;;10.10;;
53044;SDS011;38930;52.766;6.884;2022-09-30T06:58:49;15.60;;;11.35;;
53044;SDS011;38930;52.766;6.884;2022-09-30T07:01:15;14.50;;;10.25;;
53044;SDS011;38930;52.766;6.884;2022-09-30T07:03:42;17.27;;;10.77;;
53044;SDS011;38930;52.766;6.884;2022-09-30T07:06:09;15.98;;;11.15;;
53044;SDS011;38930;52.766;6.884;2022-09-30T07:08:37;14.18;;;11.27;;
53044;SDS011;38930;52.766;6.884;2022-09-30T07:11:06;14.95;;;10.77;;
53044;SDS011;38930;52.766;6.884;2022-09-30T07:13:41;17.35;;;12.68;;
53044;SDS011;38930;52.766;6.884;2022-09-30T07:16:10;14.23;;;11.05;;
53044;SDS011;38930;52.766;6.884;2022-09-30T07:18:36;14.27;;;10.83;;
53044;SDS011;38930;52.766;6.884;2022-09-30T07:21:02;13.60;;;11.23;;
53044;SDS011;38930;52.766;6.884;2022-09-30T07:23:28;12.97;;;10.53;;
53044;SDS011;38930;52.766;6.884;2022-09-30T07:25:57;16.00;;;11.13;;
53044;SDS011;38930;52.766;6.884;2022-09-30T07:28:29;14.85;;;10.30;;
53044;SDS011;38930;52.766;6.884;2022-09-30T07:31:00;13.15;;;10.25;;
53044;SDS011;38930;52.766;6.884;2022-09-30T07:33:30;12.75;;;10.57;;
53044;SDS011;38930;52.766;6.884;2022-09-30T07:35:58;11.77;;;8.68;;
53044;SDS011;38930;52.766;6.884;2022-09-30T07:38:26;10.45;;;8.57;;
53044;SDS011;38930;52.766;6.884;2022-09-30T07:41:00;10.50;;;9.35;;
53044;SDS011;38930;52.766;6.884;2022-09-30T07:43:32;10.63;;;8.70;;
53044;SDS011;38930;52.766;6.884;2022-09-30T07:46:09;12.98;;;9.38;;
53044;SDS011;38930;52.766;6.884;2022-09-30T07:48:39;9.65;;;7.63;;
53044;SDS011;38930;52.766;6.884;2022-09-30T07:51:10;12.70;;;7.88;;
53044;SDS011;38930;52.766;6.884;2022-09-30T07:53:38;11.55;;;8.30;;
53044;SDS011;38930;52.766;6.884;2022-09-30T07:58:31;10.52;;;7.30;;
53044;SDS011;38930;52.766;6.884;2022-09-30T08:00:57;10.30;;;7.75;;
53044;SDS011;38930;52.766;6.884;2022-09-30T08:03:22;10.75;;;8.05;;
53044;SDS011;38930;52.766;6.884;2022-09-30T08:05:48;9.43;;;7.85;;
53044;SDS011;38930;52.766;6.884;2022-09-30T08:08:15;8.77;;;7.78;;
53044;SDS011;38930;52.766;6.884;2022-09-30T08:10:41;9.23;;;7.65;;
53044;SDS011;38930;52.766;6.884;2022-09-30T08:13:07;9.25;;;7.60;;
53044;SDS011;38930;52.766;6.884;2022-09-30T08:15:33;9.85;;;8.45;;
53044;SDS011;38930;52.766;6.884;2022-09-30T08:17:59;10.70;;;7.15;;
53044;SDS011;38930;52.766;6.884;2022-09-30T08:20:25;10.10;;;7.68;;
53044;SDS011;38930;52.766;6.884;2022-09-30T08:22:52;8.27;;;7.25;;
53044;SDS011;38930;52.766;6.884;2022-09-30T08:27:43;9.23;;;6.97;;
53044;SDS011;38930;52.766;6.884;2022-09-30T08:30:09;9.27;;;6.90;;
53044;SDS011;38930;52.766;6.884;2022-09-30T08:32:36;8.15;;;6.25;;
53044;SDS011;38930;52.766;6.884;2022-09-30T08:35:02;7.90;;;6.00;;
53044;SDS011;38930;52.766;6.884;2022-09-30T08:37:28;9.23;;;5.88;;
53044;SDS011;38930;52.766;6.884;2022-09-30T08:39:53;9.18;;;6.40;;
53044;SDS011;38930;52.766;6.884;2022-09-30T08:44:50;8.82;;;6.00;;
53044;SDS011;38930;52.766;6.884;2022-09-30T08:52:37;6.57;;;5.00;;
53044;SDS011;38930;52.766;6.884;2022-09-30T08:55:14;7.32;;;5.68;;
53044;SDS011;38930;52.766;6.884;2022-09-30T08:57:44;6.85;;;5.28;;
53044;SDS011;38930;52.766;6.884;2022-09-30T09:00:11;7.25;;;5.90;;
53044;SDS011;38930;52.766;6.884;2022-09-30T09:02:58;6.25;;;5.60;;
53044;SDS011;38930;52.766;6.884;2022-09-30T09:05:46;7.78;;;5.78;;
53044;SDS011;38930;52.766;6.884;2022-09-30T09:08:28;7.05;;;5.55;;
53044;SDS011;38930;52.766;6.884;2022-09-30T09:11:06;6.50;;;4.95;;
53044;SDS011;38930;52.766;6.884;2022-09-30T09:13:49;6.85;;;6.15;;
53044;SDS011;38930;52.766;6.884;2022-09-30T09:16:23;7.00;;;5.93;;
53044;SDS011;38930;52.766;6.884;2022-09-30T09:19:09;7.15;;;6.18;;
53044;SDS011;38930;52.766;6.884;2022-09-30T09:21:55;8.02;;;5.95;;
53044;SDS011;38930;52.766;6.884;2022-09-30T09:24:44;8.20;;;6.97;;
53044;SDS011;38930;52.766;6.884;2022-09-30T09:27:17;9.25;;;6.63;;
53044;SDS011;38930;52.766;6.884;2022-09-30T09:29:57;7.88;;;6.18;;
53044;SDS011;38930;52.766;6.884;2022-09-30T09:32:31;7.65;;;6.22;;
53044;SDS011;38930;52.766;6.884;2022-09-30T09:34:59;8.55;;;6.90;;
53044;SDS011;38930;52.766;6.884;2022-09-30T09:37:33;7.82;;;6.15;;
53044;SDS011;38930;52.766;6.884;2022-09-30T09:43:13;7.40;;;5.97;;
53044;SDS011;38930;52.766;6.884;2022-09-30T09:48:48;5.93;;;5.25;;
53044;SDS011;38930;52.766;6.884;2022-09-30T09:51:34;8.07;;;6.15;;
53044;SDS011;38930;52.766;6.884;2022-09-30T09:54:07;7.05;;;5.72;;
53044;SDS011;38930;52.766;6.884;2022-09-30T09:56:36;7.80;;;5.82;;
53044;SDS011;38930;52.766;6.884;2022-09-30T10:01:33;6.78;;;6.07;;
53044;SDS011;38930;52.766;6.884;2022-09-30T10:09:21;7.93;;;7.15;;
53044;SDS011;38930;52.766;6.884;2022-09-30T10:14:35;9.27;;;7.63;;
53044;SDS011;38930;52.766;6.884;2022-09-30T10:17:01;10.55;;;7.88;;
53044;SDS011;38930;52.766;6.884;2022-09-30T10:19:41;7.70;;;7.00;;
53044;SDS011;38930;52.766;6.884;2022-09-30T10:22:17;9.02;;;8.13;;
53044;SDS011;38930;52.766;6.884;2022-09-30T10:24:45;10.25;;;9.23;;
53044;SDS011;38930;52.766;6.884;2022-09-30T10:27:24;10.60;;;9.57;;
53044;SDS011;38930;52.766;6.884;2022-09-30T10:29:54;10.95;;;9.38;;
53044;SDS011;38930;52.766;6.884;2022-09-30T10:32:20;10.63;;;9.53;;
53044;SDS011;38930;52.766;6.884;2022-09-30T10:34:48;10.63;;;9.52;;
53044;SDS011;38930;52.766;6.884;2022-09-30T10:37:28;10.35;;;9.25;;
53044;SDS011;38930;52.766;6.884;2022-09-30T10:39:57;10.57;;;9.27;;
53044;SDS011;38930;52.766;6.884;2022-09-30T10:42:27;12.15;;;9.40;;
53044;SDS011;38930;52.766;6.884;2022-09-30T10:45:05;10.65;;;8.85;;
53044;SDS011;38930;52.766;6.884;2022-09-30T10:47:43;10.38;;;8.70;;
53044;SDS011;38930;52.766;6.884;2022-09-30T10:50:13;10.05;;;8.98;;
53044;SDS011;38930;52.766;6.884;2022-09-30T10:52:54;10.00;;;8.98;;
53044;SDS011;38930;52.766;6.884;2022-09-30T11:00:48;8.35;;;7.35;;
53044;SDS011;38930;52.766;6.884;2022-09-30T11:03:23;9.75;;;7.75;;
53044;SDS011;38930;52.766;6.884;2022-09-30T11:05:56;8.25;;;7.30;;
53044;SDS011;38930;52.766;6.884;2022-09-30T11:13:37;8.05;;;6.80;;
53044;SDS011;38930;52.766;6.884;2022-09-30T11:16:16;8.65;;;7.43;;
53044;SDS011;38930;52.766;6.884;2022-09-30T11:38:02;11.98;;;9.00;;
53044;SDS011;38930;52.766;6.884;2022-09-30T11:41:08;11.00;;;9.77;;
53044;SDS011;38930;52.766;6.884;2022-09-30T11:46:41;15.40;;;11.40;;
53044;SDS011;38930;52.766;6.884;2022-09-30T11:49:21;12.23;;;10.63;;
53044;SDS011;38930;52.766;6.884;2022-09-30T11:52:31;11.80;;;10.60;;
53044;SDS011;38930;52.766;6.884;2022-09-30T11:57:59;10.40;;;9.30;;
53044;SDS011;38930;52.766;6.884;2022-09-30T12:00:35;11.07;;;9.98;;
53044;SDS011;38930;52.766;6.884;2022-09-30T12:03:06;13.32;;;10.82;;
53044;SDS011;38930;52.766;6.884;2022-09-30T12:08:13;11.77;;;10.57;;
53044;SDS011;38930;52.766;6.884;2022-09-30T12:13:31;10.40;;;9.23;;
53044;SDS011;38930;52.766;6.884;2022-09-30T12:16:01;11.32;;;10.13;;
53044;SDS011;38930;52.766;6.884;2022-09-30T12:18:30;12.43;;;10.52;;
53044;SDS011;38930;52.766;6.884;2022-09-30T12:24:02;10.20;;;9.20;;
53044;SDS011;38930;52.766;6.884;2022-09-30T12:29:06;10.93;;;9.00;;
53044;SDS011;38930;52.766;6.884;2022-09-30T12:32:03;9.50;;;8.55;;
53044;SDS011;38930;52.766;6.884;2022-09-30T12:48:04;8.07;;;7.28;;
53044;SDS011;38930;52.766;6.884;2022-09-30T12:50:40;8.90;;;7.90;;
53044;SDS011;38930;52.766;6.884;2022-09-30T12:53:16;8.90;;;8.10;;
53044;SDS011;38930;52.766;6.884;2022-09-30T12:55:42;9.82;;;7.97;;
53044;SDS011;38930;52.766;6.884;2022-09-30T13:00:58;11.48;;;7.60;;
53044;SDS011;38930;52.766;6.884;2022-09-30T13:04:08;8.20;;;7.40;;
53044;SDS011;38930;52.766;6.884;2022-09-30T13:11:47;9.18;;;8.20;;
53044;SDS011;38930;52.766;6.884;2022-09-30T13:27:33;9.93;;;8.15;;
53044;SDS011;38930;52.766;6.884;2022-09-30T13:32:42;9.75;;;8.43;;
53044;SDS011;38930;52.766;6.884;2022-09-30T13:35:36;9.07;;;8.18;;
53044;SDS011;38930;52.766;6.884;2022-09-30T13:38:21;9.95;;;8.82;;
53044;SDS011;38930;52.766;6.884;2022-09-30T13:41:04;9.63;;;8.27;;
53044;SDS011;38930;52.766;6.884;2022-09-30T13:46:55;10.30;;;9.30;;
53044;SDS011;38930;52.766;6.884;2022-09-30T13:50:20;10.18;;;8.90;;
53044;SDS011;38930;52.766;6.884;2022-09-30T13:52:47;9.85;;;8.85;;
53044;SDS011;38930;52.766;6.884;2022-09-30T13:55:19;9.77;;;8.77;;
53044;SDS011;38930;52.766;6.884;2022-09-30T14:00:39;9.85;;;8.85;;
53044;SDS011;38930;52.766;6.884;2022-09-30T14:03:16;10.40;;;9.15;;
53044;SDS011;38930;52.766;6.884;2022-09-30T14:05:47;9.82;;;8.82;;
53044;SDS011;38930;52.766;6.884;2022-09-30T14:08:31;9.75;;;8.85;;
53044;SDS011;38930;52.766;6.884;2022-09-30T14:14:50;11.02;;;9.27;;
53044;SDS011;38930;52.766;6.884;2022-09-30T14:23:13;9.77;;;8.77;;
53044;SDS011;38930;52.766;6.884;2022-09-30T14:25:41;9.10;;;8.20;;
53044;SDS011;38930;52.766;6.884;2022-09-30T14:28:22;9.05;;;8.15;;
53044;SDS011;38930;52.766;6.884;2022-09-30T14:31:01;10.77;;;8.07;;
53044;SDS011;38930;52.766;6.884;2022-09-30T14:33:36;10.57;;;9.50;;
53044;SDS011;38930;52.766;6.884;2022-09-30T14:36:05;10.10;;;9.00;;
53044;SDS011;38930;52.766;6.884;2022-09-30T14:38:41;9.88;;;8.88;;
53044;SDS011;38930;52.766;6.884;2022-09-30T14:41:13;10.93;;;8.57;;
53044;SDS011;38930;52.766;6.884;2022-09-30T14:43:42;11.18;;;9.85;;
53044;SDS011;38930;52.766;6.884;2022-09-30T14:46:23;10.32;;;9.40;;
53044;SDS011;38930;52.766;6.884;2022-09-30T14:48:50;10.65;;;9.30;;
53044;SDS011;38930;52.766;6.884;2022-09-30T14:51:18;10.35;;;9.38;;
53044;SDS011;38930;52.766;6.884;2022-09-30T14:53:51;9.97;;;8.87;;
53044;SDS011;38930;52.766;6.884;2022-09-30T14:58:57;8.13;;;7.38;;
53044;SDS011;38930;52.766;6.884;2022-09-30T15:01:42;9.02;;;7.43;;
53044;SDS011;38930;52.766;6.884;2022-09-30T15:04:13;9.70;;;8.40;;
53044;SDS011;38930;52.766;6.884;2022-09-30T15:06:43;10.15;;;8.85;;
53044;SDS011;38930;52.766;6.884;2022-09-30T15:09:15;10.18;;;9.18;;
53044;SDS011;38930;52.766;6.884;2022-09-30T15:11:51;12.25;;;9.65;;
53044;SDS011;38930;52.766;6.884;2022-09-30T15:14:22;11.03;;;10.00;;
53044;SDS011;38930;52.766;6.884;2022-09-30T15:21:57;12.48;;;11.27;;
53044;SDS011;38930;52.766;6.884;2022-09-30T15:24:26;11.13;;;10.02;;
53044;SDS011;38930;52.766;6.884;2022-09-30T15:26:55;11.80;;;10.70;;
53044;SDS011;38930;52.766;6.884;2022-09-30T15:29:22;11.95;;;10.40;;
53044;SDS011;38930;52.766;6.884;2022-09-30T15:31:48;13.07;;;10.53;;
53044;SDS011;38930;52.766;6.884;2022-09-30T15:34:23;10.25;;;9.15;;
53044;SDS011;38930;52.766;6.884;2022-09-30T15:36:59;10.73;;;9.52;;
53044;SDS011;38930;52.766;6.884;2022-09-30T15:39:35;10.73;;;9.65;;
53044;SDS011;38930;52.766;6.884;2022-09-30T15:42:29;11.15;;;9.98;;
53044;SDS011;38930;52.766;6.884;2022-09-30T15:45:03;11.63;;;9.40;;
53044;SDS011;38930;52.766;6.884;2022-09-30T15:48:04;10.05;;;9.10;;
53044;SDS011;38930;52.766;6.884;2022-09-30T15:50:43;10.93;;;9.85;;
53044;SDS011;38930;52.766;6.884;2022-09-30T15:53:29;12.48;;;11.20;;
53044;SDS011;38930;52.766;6.884;2022-09-30T16:01:40;9.00;;;8.10;;
53044;SDS011;38930;52.766;6.884;2022-09-30T16:06:59;8.30;;;7.47;;
53044;SDS011;38930;52.766;6.884;2022-09-30T16:09:38;8.38;;;7.57;;
53044;SDS011;38930;52.766;6.884;2022-09-30T16:12:06;7.70;;;7.00;;
53044;SDS011;38930;52.766;6.884;2022-09-30T16:17:22;9.35;;;8.30;;
53044;SDS011;38930;52.766;6.884;2022-09-30T16:19:59;8.10;;;6.95;;
53044;SDS011;38930;52.766;6.884;2022-09-30T16:25:30;9.55;;;7.45;;
53044;SDS011;38930;52.766;6.884;2022-09-30T16:30:37;10.45;;;8.10;;
53044;SDS011;38930;52.766;6.884;2022-09-30T16:33:10;7.53;;;6.82;;
53044;SDS011;38930;52.766;6.884;2022-09-30T16:35:39;8.38;;;7.13;;
53044;SDS011;38930;52.766;6.884;2022-09-30T16:38:06;10.32;;;8.07;;
53044;SDS011;38930;52.766;6.884;2022-09-30T16:40:36;8.48;;;7.57;;
53044;SDS011;38930;52.766;6.884;2022-09-30T16:43:02;8.77;;;7.23;;
53044;SDS011;38930;52.766;6.884;2022-09-30T16:45:29;8.55;;;7.45;;
53044;SDS011;38930;52.766;6.884;2022-09-30T16:47:55;10.13;;;7.97;;
53044;SDS011;38930;52.766;6.884;2022-09-30T16:50:26;10.27;;;8.05;;
53044;SDS011;38930;52.766;6.884;2022-09-30T16:52:55;8.45;;;7.05;;
53044;SDS011;38930;52.766;6.884;2022-09-30T16:55:21;9.00;;;6.77;;
53044;SDS011;38930;52.766;6.884;2022-09-30T16:57:49;6.85;;;6.13;;
53044;SDS011;38930;52.766;6.884;2022-09-30T17:00:15;7.23;;;5.90;;
53044;SDS011;38930;52.766;6.884;2022-09-30T17:02:44;7.45;;;6.63;;
53044;SDS011;38930;52.766;6.884;2022-09-30T17:05:11;6.45;;;5.85;;
53044;SDS011;38930;52.766;6.884;2022-09-30T17:07:39;7.22;;;5.68;;
53044;SDS011;38930;52.766;6.884;2022-09-30T17:10:07;6.72;;;6.03;;
53044;SDS011;38930;52.766;6.884;2022-09-30T17:12:40;7.88;;;5.90;;
53044;SDS011;38930;52.766;6.884;2022-09-30T17:15:05;6.20;;;5.60;;
53044;SDS011;38930;52.766;6.884;2022-09-30T17:17:31;10.20;;;5.68;;
53044;SDS011;38930;52.766;6.884;2022-09-30T17:19:57;6.45;;;5.85;;
53044;SDS011;38930;52.766;6.884;2022-09-30T17:22:22;6.55;;;5.78;;
53044;SDS011;38930;52.766;6.884;2022-09-30T17:24:48;6.70;;;5.93;;
53044;SDS011;38930;52.766;6.884;2022-09-30T17:27:13;10.38;;;6.75;;
53044;SDS011;38930;52.766;6.884;2022-09-30T17:29:39;9.00;;;7.95;;
53044;SDS011;38930;52.766;6.884;2022-09-30T17:32:05;12.82;;;10.00;;
53044;SDS011;38930;52.766;6.884;2022-09-30T17:34:30;11.68;;;9.18;;
53044;SDS011;38930;52.766;6.884;2022-09-30T17:36:56;8.40;;;7.47;;
53044;SDS011;38930;52.766;6.884;2022-09-30T17:39:21;7.60;;;5.85;;
53044;SDS011;38930;52.766;6.884;2022-09-30T17:41:49;6.65;;;5.78;;
53044;SDS011;38930;52.766;6.884;2022-09-30T17:44:33;8.80;;;6.80;;
53044;SDS011;38930;52.766;6.884;2022-09-30T17:46:58;7.07;;;5.70;;
53044;SDS011;38930;52.766;6.884;2022-09-30T17:49:29;6.15;;;5.32;;
53044;SDS011;38930;52.766;6.884;2022-09-30T17:51:56;6.20;;;5.55;;
53044;SDS011;38930;52.766;6.884;2022-09-30T17:54:23;8.93;;;5.43;;
53044;SDS011;38930;52.766;6.884;2022-09-30T17:56:48;6.25;;;5.60;;
53044;SDS011;38930;52.766;6.884;2022-09-30T17:59:14;8.20;;;6.43;;
53044;SDS011;38930;52.766;6.884;2022-09-30T18:01:40;7.30;;;6.10;;
53044;SDS011;38930;52.766;6.884;2022-09-30T18:04:06;7.30;;;5.40;;
53044;SDS011;38930;52.766;6.884;2022-09-30T18:06:31;7.30;;;6.22;;
53044;SDS011;38930;52.766;6.884;2022-09-30T18:11:25;7.43;;;5.35;;
53044;SDS011;38930;52.766;6.884;2022-09-30T18:16:19;10.18;;;6.80;;
53044;SDS011;38930;52.766;6.884;2022-09-30T18:18:45;8.60;;;5.38;;
53044;SDS011;38930;52.766;6.884;2022-09-30T18:21:11;7.47;;;4.93;;
53044;SDS011;38930;52.766;6.884;2022-09-30T18:23:37;9.48;;;5.63;;
53044;SDS011;38930;52.766;6.884;2022-09-30T18:26:02;6.65;;;4.82;;
53044;SDS011;38930;52.766;6.884;2022-09-30T18:28:28;7.78;;;6.13;;
53044;SDS011;38930;52.766;6.884;2022-09-30T18:30:54;8.90;;;6.22;;
53044;SDS011;38930;52.766;6.884;2022-09-30T18:33:19;8.95;;;6.57;;